Terminal Aerodrome Forecast
Issued by NWS Upton, NY

Home | Current Version | Previous Version | Text Only | Print | Product List | Glossary On
Versions: 1 2 3 4 5 6 7 8 9 10 11 12 13 14 15 16 17 18 19 20 21 22 23 24 25 26 27 28 29 30 31
534
FTUS41 KOKX 121412 AAB
TAFISP
TAF AMD
KISP 121412Z 1214/1312 17012KT 6SM -SHRA BKN025 OVC050
     FM121800 21012G18KT P6SM SCT025 BKN050
     FM122200 25012G19KT P6SM VCSH BKN020 OVC050
     FM130000 30014G24KT P6SM -SHSN BKN025
     FM130300 30016G26KT P6SM -SHSN BKN040
     FM130700 30016G34KT P6SM SCT040 BKN100=

USA.gov is the U.S. government's official web portal to all federal, state and local government web resources and services.